Time;durP1;ratioP1;P1;durP2;ratioP2;P2;SDS_P1;SDS_P2;PMS_P1;PMS_P2;Temp;Humidity;BMP_temperature;BMP_pressure;BME280_temperature;BME280_humidity;BME280_pressure;Samples;Min_cycle;Max_cycle;Signal;HPM_P1;HPM_P2
2022/04/10 00:01:49;;;;;;;10.00;3.87;;;;;;;13.59;64.12;95928.06;6216449;23;20166;-88
2022/04/10 00:04:16;;;;;;;9.10;3.83;;;;;;;13.45;64.23;95959.50;6245560;23;20593;-95
2022/04/10 00:06:45;;;;;;;6.80;3.50;;;;;;;13.40;65.24;95961.59;6241280;23;20224;-94
2022/04/10 00:09:13;;;;;;;7.80;4.20;;;;;;;13.02;64.82;95933.19;6242520;23;20164;-94
2022/04/10 00:11:40;;;;;;;7.93;3.73;;;;;;;13.18;64.82;95935.53;6242075;23;20668;-96
2022/04/10 00:14:08;;;;;;;8.10;3.53;;;;;;;12.98;65.20;95922.16;6242720;23;20171;-94
2022/04/10 00:16:37;;;;;;;6.60;3.67;;;;;;;13.15;64.91;95931.38;6215836;23;20549;-96
2022/04/10 00:19:05;;;;;;;6.07;3.80;;;;;;;13.37;64.94;95941.03;6215239;23;20197;-94
2022/04/10 00:21:34;;;;;;;4.70;3.43;;;;;;;13.27;65.25;95930.47;6215030;23;20202;-95
2022/04/10 00:24:03;;;;;;;9.23;4.13;;;;;;;13.38;65.36;95919.25;6242018;23;20174;-96
2022/04/10 00:26:31;;;;;;;4.33;3.40;;;;;;;13.45;65.08;95905.72;6242775;23;20172;-95
2022/04/10 00:29:00;;;;;;;9.10;4.20;;;;;;;13.33;65.68;95885.81;6241088;23;20161;-96
2022/04/10 00:31:28;;;;;;;10.73;4.20;;;;;;;13.39;66.23;95892.34;6215610;23;20171;-94
2022/04/10 00:33:55;;;;;;;7.83;3.93;;;;;;;13.10;67.63;95884.09;6214924;23;20189;-94
2022/04/10 00:36:22;;;;;;;8.37;4.47;;;;;;;12.71;69.20;95841.06;6250451;23;20251;-89
2022/04/10 00:38:49;;;;;;;9.30;4.03;;;;;;;12.95;69.89;95900.78;6258887;23;20161;-95
2022/04/10 00:41:17;;;;;;;9.77;3.87;;;;;;;13.57;68.50;95932.56;6189264;23;20177;-92
2022/04/10 00:44:09;;;;;;;6.07;4.20;;;;;;;13.91;66.85;95931.66;6214970;23;20167;-95
2022/04/10 00:46:38;;;;;;;10.83;4.37;;;;;;;13.74;66.40;95906.94;6213785;23;20166;-94
2022/04/10 00:49:06;;;;;;;7.87;4.13;;;;;;;13.70;66.49;95902.09;6189622;23;20604;-95
2022/04/10 00:51:46;;;;;;;8.07;4.03;;;;;;;13.93;66.06;95934.97;6241230;23;20590;-93
2022/04/10 00:54:19;;;;;;;8.47;4.37;;;;;;;13.99;65.13;95949.31;6214455;23;20621;-94
2022/04/10 00:56:47;;;;;;;6.93;4.07;;;;;;;14.00;64.69;95946.56;6190352;23;20207;-92
2022/04/10 00:59:16;;;;;;;7.40;4.43;;;;;;;13.86;64.52;95941.59;6250233;23;20162;-93
2022/04/10 01:01:45;;;;;;;7.13;4.17;;;;;;;13.55;64.68;95919.69;6210643;23;20184;-90
2022/04/10 01:04:34;;;;;;;8.17;4.37;;;;;;;13.04;66.90;95924.34;6265272;23;20172;-90
2022/04/10 01:07:01;;;;;;;15.53;4.70;;;;;;;12.70;67.86;95932.06;6266118;23;20192;-85
2022/04/10 01:09:32;;;;;;;10.00;4.60;;;;;;;12.44;68.50;95907.97;6242103;23;20176;-87
2022/04/10 01:12:01;;;;;;;8.93;4.30;;;;;;;12.46;69.37;95949.41;6241986;23;20168;-90
2022/04/10 01:14:32;;;;;;;8.40;4.40;;;;;;;12.24;70.88;95948.31;6215786;23;20186;-90
2022/04/10 01:17:00;;;;;;;9.87;4.83;;;;;;;12.16;70.89;95916.88;6240482;23;20195;-90
2022/04/10 01:19:29;;;;;;;10.60;4.83;;;;;;;12.18;70.66;95912.41;6192030;23;20171;-89
2022/04/10 01:22:03;;;;;;;10.57;4.10;;;;;;;12.16;72.41;95926.41;6241721;23;20162;-91
2022/04/10 01:24:36;;;;;;;6.13;4.27;;;;;;;12.35;72.09;95923.34;6217844;23;20617;-89
2022/04/10 01:27:06;;;;;;;9.23;4.40;;;;;;;12.38;70.61;95897.19;6243911;23;20192;-86
2022/04/10 01:29:35;;;;;;;10.37;4.43;;;;;;;12.44;70.03;95907.16;6241451;23;20163;-91
2022/04/10 01:32:03;;;;;;;6.80;4.40;;;;;;;12.35;69.78;95900.84;6270476;22;20476;-90
2022/04/10 01:34:32;;;;;;;6.80;4.00;;;;;;;12.09;70.65;95875.91;6269384;22;20170;-92
2022/04/10 01:37:02;;;;;;;6.63;3.87;;;;;;;12.44;70.63;95922.72;6244940;22;20254;-88
2022/04/10 01:39:30;;;;;;;8.70;4.40;;;;;;;12.28;69.25;95873.66;6228399;23;20176;-94
2022/04/10 01:42:00;;;;;;;7.57;3.90;;;;;;;12.65;69.14;95914.22;6193681;23;20222;-89
2022/04/10 01:44:29;;;;;;;9.53;4.33;;;;;;;12.83;68.17;95915.50;6198975;23;20201;-90
2022/04/10 01:46:56;;;;;;;6.87;3.93;;;;;;;12.79;67.66;95876.88;6218191;23;20193;-95
2022/04/10 01:49:23;;;;;;;7.13;4.17;;;;;;;12.86;67.71;95889.28;6241424;23;20167;-93
2022/04/10 01:51:51;;;;;;;9.30;3.97;;;;;;;12.88;66.48;95882.22;6214318;23;20164;-93
2022/04/10 01:54:19;;;;;;;7.47;4.17;;;;;;;12.98;66.34;95901.38;6214969;23;20654;-94
2022/04/10 01:56:48;;;;;;;7.83;4.40;;;;;;;13.01;66.13;95921.13;6213765;23;20214;-94
2022/04/10 01:59:15;;;;;;;6.97;4.07;;;;;;;13.08;67.01;95917.97;6190569;23;20168;-96
2022/04/10 02:01:42;;;;;;;13.00;3.93;;;;;;;12.80;66.46;95907.91;6215539;23;20163;-94
2022/04/10 02:04:10;;;;;;;8.57;4.07;;;;;;;12.56;67.04;95880.28;6241719;23;20207;-95
2022/04/10 02:06:37;;;;;;;6.73;3.90;;;;;;;12.66;67.06;95907.25;6215931;23;20171;-95
2022/04/10 02:09:07;;;;;;;8.37;3.90;;;;;;;12.61;67.03;95906.78;6216400;23;20171;-96
2022/04/10 02:11:38;;;;;;;6.60;4.33;;;;;;;12.49;67.93;95907.66;6222702;23;20521;-94
2022/04/10 02:14:12;;;;;;;7.63;4.07;;;;;;;12.17;67.54;95855.41;6223315;23;20185;-94
2022/04/10 02:16:39;;;;;;;7.53;3.80;;;;;;;12.04;67.98;95834.69;6239158;23;20233;-87
2022/04/10 02:19:07;;;;;;;7.90;4.27;;;;;;;12.52;67.74;95890.09;6227406;23;20629;-94
2022/04/10 02:21:37;;;;;;;11.80;5.07;;;;;;;12.63;67.15;95913.50;6189642;23;20240;-94
2022/04/10 02:24:05;;;;;;;9.50;4.43;;;;;;;12.46;67.70;95910.47;6244094;23;20169;-96
2022/04/10 02:26:34;;;;;;;7.07;4.40;;;;;;;12.66;66.92;95899.47;6242198;23;20168;-92
2022/04/10 02:29:03;;;;;;;7.97;3.77;;;;;;;12.75;66.81;95909.22;6227440;23;20216;-91
2022/04/10 02:31:30;;;;;;;9.03;4.37;;;;;;;12.87;66.21;95903.94;6225001;23;20171;-85
2022/04/10 02:34:00;;;;;;;11.67;3.87;;;;;;;12.70;66.34;95909.53;6218792;23;20171;-88
2022/04/10 02:36:29;;;;;;;6.27;4.00;;;;;;;12.16;67.39;95879.69;6232605;23;20592;-96
2022/04/10 02:38:56;;;;;;;9.33;4.53;;;;;;;11.57;68.79;95867.41;6188760;23;20166;-89
2022/04/10 02:41:23;;;;;;;7.03;4.80;;;;;;;11.16;70.36;95858.09;6213090;23;20165;-86
2022/04/10 02:43:54;;;;;;;11.13;4.87;;;;;;;10.88;72.00;95885.94;6216807;23;20556;-85
2022/04/10 02:46:21;;;;;;;10.30;5.40;;;;;;;10.69;72.58;95878.53;6219758;23;20162;-86
2022/04/10 02:48:49;;;;;;;10.30;5.87;;;;;;;10.72;73.47;95906.78;6218423;23;20194;-84
2022/04/10 02:51:18;;;;;;;8.47;5.00;;;;;;;10.49;74.21;95866.00;6217780;23;20159;-85
2022/04/10 02:53:49;;;;;;;9.73;4.73;;;;;;;10.82;73.87;95892.31;6239270;23;20490;-86
2022/04/10 02:56:35;;;;;;;6.97;5.13;;;;;;;10.90;74.11;95892.66;6246850;23;20254;-89
2022/04/10 02:59:21;;;;;;;10.00;5.00;;;;;;;10.72;74.31;95867.13;6267570;22;20201;-90
2022/04/10 03:02:07;;;;;;;8.67;4.53;;;;;;;10.67;72.95;95807.91;6250713;22;20176;-88
2022/04/10 03:04:53;;;;;;;10.37;4.50;;;;;;;11.35;71.71;95893.97;6233857;23;20264;-92
2022/04/10 03:07:39;;;;;;;9.90;4.90;;;;;;;11.33;71.13;95890.66;6229352;23;20196;-89
2022/04/10 03:10:26;;;;;;;9.00;3.73;;;;;;;11.03;71.57;95871.94;6226727;23;20180;-94
2022/04/10 03:13:15;;;;;;;6.87;4.30;;;;;;;10.87;73.30;95890.28;6226044;23;20652;-95
2022/04/10 03:16:10;;;;;;;9.17;5.30;;;;;;;10.53;74.25;95870.09;6201682;23;20687;-94
2022/04/10 03:18:57;;;;;;;7.43;4.67;;;;;;;10.59;76.34;95911.13;6220116;23;20346;-93
2022/04/10 03:21:43;;;;;;;10.30;6.10;;;;;;;10.32;76.98;95863.69;6220969;23;20180;-93
2022/04/10 03:24:28;;;;;;;10.63;6.07;;;;;;;10.47;77.96;95901.50;6221286;23;20179;-96
2022/04/10 03:27:14;;;;;;;8.67;6.20;;;;;;;10.62;76.84;95892.78;6220377;23;20179;-93
2022/04/10 03:30:00;;;;;;;12.17;5.57;;;;;;;10.94;76.33;95904.47;6220817;23;20176;-95
2022/04/10 03:32:46;;;;;;;13.13;5.60;;;;;;;11.29;74.87;95909.94;6228849;22;20175;-94
2022/04/10 03:35:33;;;;;;;9.97;5.60;;;;;;;11.45;73.92;95892.44;6233869;23;20176;-96
2022/04/10 03:38:22;;;;;;;9.13;5.33;;;;;;;11.36;73.85;95849.81;6221169;23;20184;-93
2022/04/10 03:41:10;;;;;;;11.43;6.63;;;;;;;11.60;74.21;95875.00;6220182;23;20197;-96
2022/04/10 03:43:56;;;;;;;12.73;6.27;;;;;;;11.46;75.00;95897.50;6220095;23;20315;-95
2022/04/10 03:46:44;;;;;;;14.23;5.73;;;;;;;11.30;73.84;95865.78;6221367;23;20192;-92
2022/04/10 03:49:29;;;;;;;5.23;4.13;;;;;;;11.53;73.05;95904.88;6219820;23;20240;-95
2022/04/10 03:52:16;;;;;;;12.77;4.90;;;;;;;11.62;73.46;95909.44;6220634;23;20247;-94
2022/04/10 03:55:03;;;;;;;9.53;4.70;;;;;;;11.95;72.50;95894.19;6219862;23;20176;-93
2022/04/10 03:57:50;;;;;;;12.00;5.40;;;;;;;12.04;72.22;95909.09;6219239;23;20265;-94
2022/04/10 04:00:36;;;;;;;7.60;4.77;;;;;;;12.07;71.79;95903.72;6220957;23;20179;-94
2022/04/10 04:03:27;;;;;;;9.23;5.17;;;;;;;12.10;71.42;95880.13;6221431;23;20269;-95
2022/04/10 04:06:12;;;;;;;12.27;5.80;;;;;;;12.14;71.56;95889.34;6218730;23;20225;-93
2022/04/10 04:08:58;;;;;;;9.87;5.30;;;;;;;12.13;71.11;95879.94;6243304;23;20964;-94
2022/04/10 04:11:43;;;;;;;16.17;7.23;;;;;;;12.19;72.54;95890.72;6219605;23;20176;-93
2022/04/10 04:14:28;;;;;;;9.27;5.70;;;;;;;12.27;72.51;95874.59;6218500;23;20241;-94
2022/04/10 04:17:16;;;;;;;15.47;6.00;;;;;;;12.23;71.49;95873.16;6218960;23;20233;-94
2022/04/10 04:20:03;;;;;;;17.00;6.67;;;;;;;12.30;71.86;95876.16;6218751;23;20219;-92
2022/04/10 04:22:50;;;;;;;10.97;5.77;;;;;;;12.18;71.63;95850.09;6218748;23;20878;-92
2022/04/10 04:25:39;;;;;;;13.13;6.83;;;;;;;12.35;71.28;95881.81;6198619;23;20182;-93
2022/04/10 04:28:26;;;;;;;12.80;6.40;;;;;;;12.54;70.23;95884.78;6218770;23;20307;-93
2022/04/10 04:31:12;;;;;;;18.90;7.43;;;;;;;12.57;69.09;95867.19;6224569;23;20218;-87
2022/04/10 04:33:59;;;;;;;14.63;5.77;;;;;;;12.71;67.65;95867.03;6233908;23;20697;-90
2022/04/10 04:36:45;;;;;;;10.33;6.47;;;;;;;12.87;67.66;95906.56;6217476;23;20827;-92
2022/04/10 04:39:33;;;;;;;13.70;6.07;;;;;;;12.94;66.31;95902.53;6218873;23;20182;-91
2022/04/10 04:42:19;;;;;;;14.10;6.63;;;;;;;12.80;67.22;95894.94;6218988;23;20182;-92
2022/04/10 04:45:05;;;;;;;10.37;6.07;;;;;;;12.82;66.59;95924.22;6219424;23;20210;-94
2022/04/10 04:47:51;;;;;;;10.37;6.53;;;;;;;12.77;67.06;95915.13;6199761;23;20206;-93
2022/04/10 04:50:38;;;;;;;10.07;6.60;;;;;;;12.06;68.82;95917.59;6219919;23;20187;-92
2022/04/10 04:53:25;;;;;;;11.47;7.00;;;;;;;11.68;70.29;95933.22;6221878;23;20237;-91
2022/04/10 04:56:12;;;;;;;12.40;5.90;;;;;;;11.62;71.25;95943.16;6219066;23;20497;-96
2022/04/10 04:58:58;;;;;;;9.57;5.67;;;;;;;11.05;71.71;95846.78;6223406;23;20659;-92
2022/04/10 05:01:45;;;;;;;9.03;5.77;;;;;;;11.39;71.92;95927.38;6221930;23;20176;-94
2022/04/10 05:04:33;;;;;;;9.10;5.70;;;;;;;11.61;72.16;95946.66;6220719;23;20184;-85
2022/04/10 05:07:22;;;;;;;15.80;7.57;;;;;;;11.60;72.41;95945.00;6236730;23;20179;-88
2022/04/10 05:10:09;;;;;;;9.87;5.10;;;;;;;11.68;72.32;95959.16;6221083;23;20662;-93
2022/04/10 05:12:56;;;;;;;8.53;4.90;;;;;;;11.54;72.48;95948.81;6243088;23;20448;-90
2022/04/10 05:15:44;;;;;;;10.93;5.33;;;;;;;11.43;73.69;95959.09;6218626;23;20184;-92
2022/04/10 05:18:32;;;;;;;11.23;5.13;;;;;;;10.92;74.85;95901.16;6219284;23;20633;-92
2022/04/10 05:21:19;;;;;;;7.37;5.13;;;;;;;11.03;75.90;95944.50;6218276;23;20304;-87
2022/04/10 05:24:05;;;;;;;7.77;4.90;;;;;;;11.16;76.44;95958.31;6218093;23;20181;-85
2022/04/10 05:26:51;;;;;;;14.07;6.30;;;;;;;11.56;74.83;95975.47;6217593;23;20557;-88
2022/04/10 05:29:37;;;;;;;12.00;5.97;;;;;;;11.83;73.33;95939.16;6218928;23;20257;-87
2022/04/10 05:32:23;;;;;;;12.60;5.50;;;;;;;11.77;72.30;95872.09;6234850;23;20237;-86
2022/04/10 05:35:12;;;;;;;11.57;5.43;;;;;;;12.54;70.87;95919.38;6240042;23;20185;-88
2022/04/10 05:38:01;;;;;;;11.00;6.00;;;;;;;12.24;71.09;95917.16;6216871;23;20607;-85
2022/04/10 05:40:52;;;;;;;20.23;7.87;;;;;;;12.14;72.94;95944.69;6217380;23;20178;-92
2022/04/10 05:43:41;;;;;;;17.23;6.40;;;;;;;12.18;72.89;95911.56;6221936;23;20227;-85
2022/04/10 05:46:26;;;;;;;17.20;6.20;;;;;;;12.41;71.25;95912.53;6197038;23;20179;-86
2022/04/10 05:49:17;;;;;;;12.17;7.60;;;;;;;12.51;70.38;95893.59;6216583;23;20308;-90
2022/04/10 05:52:04;;;;;;;14.23;7.43;;;;;;;12.62;71.47;95948.22;6217573;23;20708;-89
2022/04/10 05:55:01;;;;;;;24.37;8.27;;;;;;;12.83;71.05;95967.47;6216578;23;20526;-91
2022/04/10 05:57:48;;;;;;;15.13;6.97;;;;;;;12.99;69.68;95931.63;6225172;23;20310;-92
2022/04/10 06:00:42;;;;;;;12.77;7.00;;;;;;;12.99;69.93;95904.81;6198650;23;20528;-94
2022/04/10 06:03:36;;;;;;;12.73;6.77;;;;;;;12.80;70.55;95904.50;6216156;23;20184;-89
2022/04/10 06:06:25;;;;;;;11.70;7.27;;;;;;;12.44;71.12;95866.44;6196757;23;20227;-89
2022/04/10 06:09:24;;;;;;;12.27;7.43;;;;;;;12.95;70.73;95911.19;6217695;23;20183;-90
2022/04/10 06:12:10;;;;;;;13.90;6.67;;;;;;;13.29;70.36;95938.16;6216522;23;20643;-91
2022/04/10 06:15:01;;;;;;;14.03;6.30;;;;;;;13.45;69.02;95943.88;6217393;23;20307;-91
2022/04/10 06:17:30;;;;;;;14.77;7.90;;;;;;;13.61;68.38;95944.38;6213155;23;20680;-90
2022/04/10 06:20:00;;;;;;;17.93;8.63;;;;;;;14.03;67.62;95961.13;6209166;23;20515;-88
2022/04/10 06:22:32;;;;;;;14.87;8.80;;;;;;;14.15;66.47;95939.38;6194924;23;20239;-92
2022/04/10 06:25:02;;;;;;;23.03;10.07;;;;;;;13.99;66.74;95886.81;6214334;23;20616;-88
2022/04/10 06:27:29;;;;;;;10.53;7.97;;;;;;;13.82;66.88;95896.78;6190474;23;20164;-88
2022/04/10 06:29:56;;;;;;;20.67;9.20;;;;;;;13.59;67.79;95883.84;6232106;23;20168;-87
2022/04/10 06:32:23;;;;;;;16.73;9.37;;;;;;;13.80;67.25;95905.63;6243565;23;20164;-88
2022/04/10 06:34:55;;;;;;;12.30;8.80;;;;;;;13.86;67.25;95952.84;6213869;23;20656;-91
2022/04/10 06:37:22;;;;;;;17.07;7.93;;;;;;;13.83;67.35;95927.03;6213625;23;20274;-90
2022/04/10 06:39:50;;;;;;;8.87;7.13;;;;;;;14.10;67.17;95918.88;6165415;23;20173;-93
2022/04/10 06:42:21;;;;;;;13.27;7.73;;;;;;;14.11;66.63;95904.94;6213404;23;20285;-88
2022/04/10 06:45:16;;;;;;;13.50;6.37;;;;;;;13.49;69.00;95888.09;6184746;23;20195;-93
2022/04/10 06:47:55;;;;;;;18.53;7.00;;;;;;;13.15;69.88;95875.97;6242172;23;20161;-91
2022/04/10 06:50:39;;;;;;;11.80;6.63;;;;;;;13.59;70.09;95948.88;6254011;22;20596;-86
2022/04/10 06:53:15;;;;;;;14.17;7.43;;;;;;;13.94;68.43;95975.69;6206874;23;20164;-92
2022/04/10 06:55:43;;;;;;;11.30;5.97;;;;;;;13.86;68.72;95949.41;6226914;23;20255;-91
2022/04/10 06:58:12;;;;;;;11.23;6.03;;;;;;;13.97;69.21;95970.25;6229640;23;20219;-86
2022/04/10 07:00:41;;;;;;;10.20;5.37;;;;;;;13.67;69.74;95949.13;6198788;23;20624;-89
2022/04/10 07:03:11;;;;;;;8.03;4.90;;;;;;;13.41;71.02;95911.25;6222663;23;20173;-92
2022/04/10 07:05:39;;;;;;;11.23;6.37;;;;;;;13.34;71.07;95884.03;6217158;23;20196;-92
2022/04/10 07:08:19;;;;;;;16.33;6.63;;;;;;;14.09;69.87;95945.03;6241819;23;20161;-93
2022/04/10 07:10:50;;;;;;;13.97;6.10;;;;;;;14.25;69.61;95941.13;6216341;23;20174;-88
2022/04/10 07:13:20;;;;;;;12.07;6.60;;;;;;;14.43;68.68;95924.09;6188845;23;20219;-90
2022/04/10 07:15:52;;;;;;;14.00;6.93;;;;;;;14.49;68.29;95907.16;6191503;23;20227;-93
2022/04/10 07:18:25;;;;;;;17.07;8.03;;;;;;;13.92;70.74;95907.28;6214649;23;20548;-92
2022/04/10 07:20:59;;;;;;;15.20;8.37;;;;;;;13.97;70.45;95897.38;6189848;23;20205;-91
2022/04/10 07:23:43;;;;;;;16.70;8.50;;;;;;;14.31;71.12;95932.88;6188078;23;20251;-91
2022/04/10 07:26:22;;;;;;;12.60;7.37;;;;;;;14.53;69.83;95934.59;6212885;23;20685;-89
2022/04/10 07:28:55;;;;;;;11.17;7.23;;;;;;;14.77;69.69;95945.72;6209942;22;20173;-89
2022/04/10 07:31:25;;;;;;;8.83;5.90;;;;;;;14.67;69.07;95916.94;6241457;22;20154;-92
2022/04/10 07:33:55;;;;;;;12.43;5.17;;;;;;;14.85;69.43;95934.66;6241597;22;20366;-88
2022/04/10 07:36:54;;;;;;;12.93;5.90;;;;;;;15.05;69.08;95973.00;6202971;22;20184;-91
2022/04/10 07:39:23;;;;;;;10.93;5.80;;;;;;;15.15;68.25;95961.72;6235091;23;20262;-91
2022/04/10 07:42:02;;;;;;;10.13;5.33;;;;;;;14.95;69.36;95909.50;6191702;23;20177;-93
2022/04/10 07:44:54;;;;;;;13.40;5.67;;;;;;;14.62;69.90;95900.84;6214540;23;20645;-91
2022/04/10 07:47:26;;;;;;;12.77;6.60;;;;;;;14.71;70.82;95901.06;6215197;23;20662;-96
2022/04/10 07:49:56;;;;;;;12.97;6.10;;;;;;;14.45;72.14;95914.38;6193550;23;20161;-94
2022/04/10 07:52:24;;;;;;;13.10;6.43;;;;;;;14.45;71.36;95905.72;6218270;23;20173;-93
2022/04/10 07:55:05;;;;;;;10.67;5.27;;;;;;;14.77;70.39;95913.59;6244426;23;20192;-92
2022/04/10 07:57:37;;;;;;;21.17;7.13;;;;;;;15.08;68.80;95907.56;6215436;23;20190;-91
2022/04/10 08:00:06;;;;;;;17.60;5.87;;;;;;;15.35;68.42;95926.19;6216358;23;20170;-91
2022/04/10 08:02:48;;;;;;;11.07;5.47;;;;;;;15.39;68.10;95927.59;6215032;23;20605;-91
2022/04/10 08:05:35;;;;;;;12.50;6.30;;;;;;;15.15;69.06;95917.38;6215725;23;20161;-94
2022/04/10 08:08:10;;;;;;;11.17;5.33;;;;;;;14.89;70.50;95883.94;6192180;23;20181;-90
2022/04/10 08:10:39;;;;;;;17.03;7.00;;;;;;;15.52;68.29;95920.41;6215315;23;20165;-91
2022/04/10 08:13:08;;;;;;;12.90;6.87;;;;;;;15.74;67.70;95902.03;6190741;23;20784;-91
2022/04/10 08:15:38;;;;;;;18.07;6.40;;;;;;;15.98;66.72;95923.44;6214327;23;20423;-92
2022/04/10 08:18:15;;;;;;;13.27;6.47;;;;;;;16.19;66.02;95910.34;6241819;23;20204;-89
2022/04/10 08:20:42;;;;;;;13.17;6.27;;;;;;;16.24;65.75;95919.41;6214562;23;20206;-91
2022/04/10 08:23:10;;;;;;;12.13;6.30;;;;;;;16.29;65.98;95917.25;6214292;23;20169;-90
2022/04/10 08:25:37;;;;;;;12.63;5.87;;;;;;;16.51;65.14;95902.34;6241279;23;20169;-90
2022/04/10 08:28:04;;;;;;;10.77;5.67;;;;;;;16.85;64.82;95925.41;6228706;23;20185;-89
2022/04/10 08:30:31;;;;;;;15.60;6.97;;;;;;;16.77;64.48;95913.97;6250940;23;20175;-90
2022/04/10 08:32:58;;;;;;;11.80;5.43;;;;;;;16.82;64.97;95914.38;6213978;23;20515;-93
2022/04/10 08:35:25;;;;;;;13.20;6.07;;;;;;;17.24;63.78;95909.72;6242793;23;20181;-94
2022/04/10 08:37:53;;;;;;;14.47;5.60;;;;;;;17.36;62.78;95909.44;6244826;23;20249;-91
2022/04/10 08:40:20;;;;;;;16.63;6.33;;;;;;;17.62;62.48;95925.44;6215376;23;20218;-93
2022/04/10 08:42:48;;;;;;;10.90;5.20;;;;;;;17.73;61.51;95918.25;6215287;23;20168;-88
2022/04/10 08:45:23;;;;;;;12.73;6.17;;;;;;;17.49;61.87;95889.09;6214376;23;20175;-93
2022/04/10 08:47:50;;;;;;;11.67;5.67;;;;;;;17.56;61.06;95886.72;6215368;23;20540;-94
2022/04/10 08:50:18;;;;;;;12.80;5.67;;;;;;;17.66;61.61;95922.38;6240932;23;20167;-93
2022/04/10 08:52:45;;;;;;;12.67;6.07;;;;;;;17.16;61.48;95829.31;6189615;23;20534;-93
2022/04/10 08:55:12;;;;;;;16.43;5.87;;;;;;;17.66;62.02;95892.78;6242354;23;20173;-92
2022/04/10 08:57:40;;;;;;;15.17;6.27;;;;;;;17.63;61.00;95895.66;6214353;23;20201;-91
2022/04/10 09:00:09;;;;;;;13.17;5.70;;;;;;;17.27;61.83;95865.78;6216204;23;20175;-90
2022/04/10 09:02:47;;;;;;;13.50;6.50;;;;;;;17.38;61.97;95901.44;6242457;23;20163;-92
2022/04/10 09:05:24;;;;;;;14.17;6.13;;;;;;;17.25;61.82;95900.94;6243429;23;20164;-93
2022/04/10 09:08:09;;;;;;;12.07;6.00;;;;;;;16.64;60.91;95895.09;6214167;23;20614;-92
2022/04/10 09:11:01;;;;;;;9.57;5.73;;;;;;;15.71;57.56;95898.81;6215884;23;20236;-91
2022/04/10 09:13:29;;;;;;;7.57;5.60;;;;;;;15.57;58.31;95896.56;6242115;23;20165;-92
2022/04/10 09:16:04;;;;;;;6.90;5.30;;;;;;;14.88;58.98;95903.16;6214198;23;20172;-90
2022/04/10 09:18:53;;;;;;;9.03;6.43;;;;;;;14.72;59.94;95910.53;6242076;23;20193;-91
2022/04/10 09:21:24;;;;;;;11.30;7.40;;;;;;;14.46;59.89;95887.41;6190316;23;20197;-92
2022/04/10 09:24:01;;;;;;;9.23;6.83;;;;;;;14.31;60.48;95904.22;6242235;23;20161;-91
2022/04/10 09:26:57;;;;;;;7.37;6.50;;;;;;;14.25;60.85;95922.91;6216609;23;20593;-88
2022/04/10 09:29:25;;;;;;;7.87;6.07;;;;;;;14.13;61.56;95929.06;6221320;23;20181;-90
2022/04/10 09:31:55;;;;;;;9.73;6.97;;;;;;;14.18;61.46;95926.94;6242001;23;20169;-90
2022/04/10 09:34:29;;;;;;;12.43;7.30;;;;;;;13.95;61.12;95896.63;6241019;23;20161;-89
2022/04/10 09:37:16;;;;;;;8.17;7.23;;;;;;;14.09;60.91;95927.66;6240970;23;20502;-89
2022/04/10 09:39:50;;;;;;;9.13;6.80;;;;;;;14.10;60.73;95942.31;6240000;23;20509;-89
2022/04/10 09:42:29;;;;;;;10.83;6.10;;;;;;;13.46;61.22;95935.13;6212944;23;20629;-90
2022/04/10 09:45:32;;;;;;;10.20;7.57;;;;;;;13.47;62.24;95958.44;6214518;23;20172;-91
2022/04/10 09:48:21;;;;;;;16.90;7.77;;;;;;;13.36;62.00;95970.56;6243029;23;20226;-94
2022/04/10 09:50:59;;;;;;;12.83;8.17;;;;;;;12.98;62.77;95916.97;6242184;23;20187;-91
2022/04/10 09:53:27;;;;;;;13.70;8.43;;;;;;;13.15;63.41;95943.56;6191271;23;20534;-94
2022/04/10 09:56:07;;;;;;;11.23;8.37;;;;;;;13.17;62.36;95933.88;6241208;23;20222;-92
2022/04/10 09:58:37;;;;;;;12.07;8.63;;;;;;;13.27;62.97;95968.66;6215919;23;20291;-91
2022/04/10 10:01:10;;;;;;;12.00;9.33;;;;;;;13.08;63.24;95956.97;6190619;23;20183;-93
2022/04/10 10:03:41;;;;;;;14.17;10.63;;;;;;;13.16;64.50;95997.19;6198820;23;20175;-89
2022/04/10 10:06:12;;;;;;;18.47;12.17;;;;;;;12.72;65.79;95990.78;6249007;23;20175;-95
2022/04/10 10:08:43;;;;;;;21.97;13.27;;;;;;;12.19;69.66;95970.34;6248098;23;20165;-94
2022/04/10 10:11:11;;;;;;;17.73;12.10;;;;;;;12.16;71.85;96018.09;6223768;23;20644;-93
2022/04/10 10:13:41;;;;;;;21.80;15.20;;;;;;;11.50;74.84;95985.47;6250363;23;20173;-87
2022/04/10 10:16:12;;;;;;;19.63;13.90;;;;;;;11.53;76.38;95980.06;6228949;23;20186;-88
2022/04/10 10:18:43;;;;;;;22.40;13.97;;;;;;;11.48;77.44;95983.78;6243609;23;20646;-89
2022/04/10 10:21:11;;;;;;;18.93;13.43;;;;;;;11.32;77.45;95954.63;6214293;23;20272;-85
2022/04/10 10:23:43;;;;;;;17.60;11.20;;;;;;;11.50;79.46;95949.16;6216737;23;20249;-92
2022/04/10 10:26:31;;;;;;;20.83;13.23;;;;;;;11.66;81.01;95935.09;6216034;23;20162;-87
2022/04/10 10:29:19;;;;;;;20.37;14.03;;;;;;;12.20;80.43;95922.66;6257872;22;20184;-90
2022/04/10 10:31:58;;;;;;;20.07;12.97;;;;;;;12.21;79.78;95885.41;6246002;23;20173;-91
2022/04/10 10:34:28;;;;;;;18.83;13.43;;;;;;;12.81;78.87;95922.59;6239209;23;20162;-86
2022/04/10 10:36:57;;;;;;;21.43;14.03;;;;;;;13.52;78.71;95930.28;6213959;23;20710;-88
2022/04/10 10:39:28;;;;;;;21.23;13.80;;;;;;;13.93;77.11;95889.91;6239111;23;20200;-88
2022/04/10 10:42:10;;;;;;;22.03;14.00;;;;;;;14.45;74.22;95917.00;6240115;23;20162;-90
2022/04/10 10:44:38;;;;;;;21.10;14.33;;;;;;;14.78;75.26;95933.50;6240894;23;20242;-85
2022/04/10 10:47:16;;;;;;;17.07;12.10;;;;;;;14.64;72.52;95905.94;6215441;23;20170;-87
2022/04/10 10:49:45;;;;;;;12.03;8.80;;;;;;;14.68;71.21;95923.81;6241543;23;20211;-91
2022/04/10 10:52:14;;;;;;;14.97;10.63;;;;;;;14.24;70.85;95887.38;6242102;23;20166;-89
2022/04/10 10:54:58;;;;;;;13.07;10.00;;;;;;;14.62;73.05;95947.75;6217794;23;20165;-89
2022/04/10 10:57:31;;;;;;;13.80;10.80;;;;;;;14.80;72.12;95949.84;6250668;23;20687;-86
2022/04/10 11:00:06;;;;;;;17.73;10.70;;;;;;;14.95;72.34;95953.84;6235500;23;20177;-86
2022/04/10 11:02:35;;;;;;;15.47;11.67;;;;;;;15.03;71.19;95930.56;6262445;23;20240;-89
2022/04/10 11:05:36;;;;;;;14.97;10.77;;;;;;;15.25;70.41;95938.34;6237818;23;20169;-90
2022/04/10 11:08:07;;;;;;;16.30;11.73;;;;;;;15.48;70.03;95930.28;6257265;23;20249;-85
2022/04/10 11:10:38;;;;;;;15.23;12.03;;;;;;;15.77;68.60;95924.41;6261414;23;20166;-88
2022/04/10 11:13:09;;;;;;;21.40;15.20;;;;;;;15.62;68.37;95889.97;6230470;23;20166;-85
2022/04/10 11:15:53;;;;;;;14.87;11.17;;;;;;;15.99;67.55;95888.53;6253498;23;20214;-88
2022/04/10 11:18:27;;;;;;;15.67;11.27;;;;;;;16.47;63.88;95901.75;6250009;23;20249;-89
2022/04/10 11:20:57;;;;;;;15.57;11.80;;;;;;;16.27;63.05;95884.38;6200359;23;20216;-89
2022/04/10 11:23:32;;;;;;;13.50;10.30;;;;;;;16.24;64.23;95866.34;6267052;23;20169;-85
2022/04/10 11:26:06;;;;;;;14.27;10.90;;;;;;;16.64;64.48;95874.16;6236642;23;20162;-84
2022/04/10 11:29:02;;;;;;;15.97;10.67;;;;;;;16.63;62.79;95867.31;6268545;22;20524;-93
2022/04/10 11:31:34;;;;;;;14.10;10.50;;;;;;;16.78;64.38;95856.31;6244789;23;20172;-93
2022/04/10 11:34:14;;;;;;;15.90;11.47;;;;;;;16.76;64.73;95852.16;6245345;23;20161;-90
2022/04/10 11:36:48;;;;;;;13.73;11.07;;;;;;;16.85;62.38;95846.97;6245940;22;20162;-93
2022/04/10 11:39:16;;;;;;;13.47;11.17;;;;;;;16.82;63.39;95849.84;6271901;22;20249;-88
2022/04/10 11:41:45;;;;;;;14.37;10.33;;;;;;;16.93;61.71;95846.25;6245546;23;20238;-93
2022/04/10 11:44:15;;;;;;;12.93;9.33;;;;;;;16.70;61.14;95844.88;6271040;23;20155;-84
2022/04/10 11:46:46;;;;;;;15.23;9.60;;;;;;;16.67;60.94;95835.50;6269486;23;20174;-89
2022/04/10 11:49:16;;;;;;;13.03;9.33;;;;;;;16.83;61.64;95821.91;6239502;23;20176;-94
2022/04/10 11:51:58;;;;;;;13.00;9.00;;;;;;;17.19;60.03;95834.25;6266245;23;20170;-91
2022/04/10 11:54:26;;;;;;;14.30;9.63;;;;;;;17.38;59.48;95838.63;6258006;23;20189;-92
2022/04/10 11:56:54;;;;;;;14.00;8.33;;;;;;;17.29;58.24;95777.50;6219592;23;20532;-93
2022/04/10 11:59:23;;;;;;;12.97;10.10;;;;;;;17.62;59.83;95832.00;6246181;23;20194;-95
2022/04/10 12:01:51;;;;;;;12.20;9.20;;;;;;;17.60;58.93;95844.41;6245195;23;20168;-92
2022/04/10 12:04:19;;;;;;;11.93;9.17;;;;;;;17.31;59.04;95848.84;6244759;23;20167;-89
2022/04/10 12:06:47;;;;;;;17.43;9.67;;;;;;;17.29;59.79;95848.16;6244365;23;20176;-89
2022/04/10 12:09:16;;;;;;;15.23;8.97;;;;;;;17.00;59.32;95813.38;6248553;23;20166;-90